createdAt,value
2019-02-24T00:00:58.172Z,101614.38
2019-02-24T00:02:29.450Z,101610.60
2019-02-24T00:04:01.574Z,101613.59
2019-02-24T00:05:32.935Z,101611.61
2019-02-24T00:07:04.227Z,101614.08
2019-02-24T00:08:36.104Z,101610.83
2019-02-24T00:10:07.917Z,101612.19
2019-02-24T00:11:39.273Z,101613.91
2019-02-24T00:13:11.170Z,101612.60
2019-02-24T00:14:42.490Z,101615.99
2019-02-24T00:16:14.913Z,101614.55
2019-02-24T00:17:46.836Z,101620.63
2019-02-24T00:19:19.191Z,101616.59
2019-02-24T00:20:51.077Z,101615.74
2019-02-24T00:22:22.352Z,101610.91
2019-02-24T00:23:53.659Z,101615.78
2019-02-24T00:25:25.497Z,101615.13
2019-02-24T00:26:56.822Z,101613.61
2019-02-24T00:28:28.728Z,101615.03
2019-02-24T00:30:00.002Z,101615.41
2019-02-24T00:31:32.355Z,101605.23
2019-02-24T00:33:03.667Z,101613.66
2019-02-24T00:34:35.983Z,101610.70
2019-02-24T00:36:07.282Z,101604.97
2019-02-24T00:37:38.575Z,101603.46
2019-02-24T00:39:09.878Z,101604.70
2019-02-24T00:40:42.193Z,101614.80
2019-02-24T00:42:14.065Z,101607.45
2019-02-24T00:43:45.960Z,101605.58
2019-02-24T00:45:17.265Z,101604.20
2019-02-24T00:46:49.408Z,101598.60
2019-02-24T00:48:21.287Z,101599.13
2019-02-24T00:49:52.983Z,101597.41
2019-02-24T00:51:24.856Z,101597.69
2019-02-24T00:52:56.782Z,101600.69
2019-02-24T00:54:28.683Z,101598.77
2019-02-24T00:56:00.760Z,101600.05
2019-02-24T00:57:32.073Z,101607.20
2019-02-24T00:59:03.409Z,101602.88
2019-02-24T01:00:34.690Z,101598.69
2019-02-24T01:02:06.987Z,101599.22
2019-02-24T01:03:38.290Z,101601.18
2019-02-24T01:05:10.028Z,101598.48
2019-02-24T01:06:41.304Z,101596.24
2019-02-24T01:08:12.628Z,101593.93
2019-02-24T01:09:43.945Z,101598.22
2019-02-24T01:11:15.559Z,101588.42
2019-02-24T01:12:46.860Z,101595.15
2019-02-24T01:14:18.174Z,101587.34
2019-02-24T01:15:49.455Z,101589.05
2019-02-24T01:17:21.137Z,101590.88
2019-02-24T01:18:52.437Z,101591.19
2019-02-24T01:20:23.723Z,101585.89
2019-02-24T01:21:55.021Z,101591.48
2019-02-24T01:23:29.409Z,101590.70
2019-02-24T01:25:00.685Z,101586.77
2019-02-24T01:26:32.003Z,101585.03
2019-02-24T01:28:03.343Z,101586.66
2019-02-24T01:29:34.931Z,101580.23
2019-02-24T01:31:06.229Z,101585.03
2019-02-24T01:32:37.545Z,101585.03
2019-02-24T01:34:08.858Z,101591.34
2019-02-24T01:35:40.400Z,101586.47
2019-02-24T01:37:11.670Z,101586.47
2019-02-24T01:38:43.004Z,101582.28
2019-02-24T01:40:14.881Z,101582.50
2019-02-24T01:41:46.487Z,101583.38
2019-02-24T01:43:18.361Z,101583.91
2019-02-24T01:44:50.271Z,101579.75
2019-02-24T01:46:21.554Z,101577.72
2019-02-24T01:47:52.971Z,101577.52
2019-02-24T01:49:24.288Z,101585.22
2019-02-24T01:50:56.207Z,101578.61
2019-02-24T01:52:27.565Z,101579.76
2019-02-24T01:53:59.760Z,101580.62
2019-02-24T01:55:31.061Z,101579.25
2019-02-24T01:57:02.371Z,101579.69
2019-02-24T01:58:35.372Z,101580.98
2019-02-24T02:00:07.605Z,101577.98
2019-02-24T02:01:38.895Z,101577.56
2019-02-24T02:03:10.202Z,101573.77
2019-02-24T02:04:41.519Z,101571.31
2019-02-24T02:06:13.152Z,101559.53
2019-02-24T02:07:45.050Z,101566.66
2019-02-24T02:09:18.659Z,101566.36
2019-02-24T02:10:49.982Z,101565.98
2019-02-24T02:12:22.358Z,101569.08
2019-02-24T02:13:53.685Z,101568.70
2019-02-24T02:15:24.981Z,101569.16
2019-02-24T02:16:56.342Z,101572.98
2019-02-24T02:18:27.910Z,101564.52
2019-02-24T02:19:59.196Z,101559.24
2019-02-24T02:21:31.532Z,101562.39
2019-02-24T02:23:02.851Z,101563.23
2019-02-24T02:24:34.187Z,101558.63
2019-02-24T02:26:05.516Z,101560.47
2019-02-24T02:27:37.077Z,101552.94
2019-02-24T02:29:08.358Z,101551.39
2019-02-24T02:30:39.715Z,101551.33
2019-02-24T02:32:11.033Z,101550.19
2019-02-24T02:33:42.604Z,101553.53
2019-02-24T02:35:13.940Z,101546.65
2019-02-24T02:36:46.257Z,101548.20
2019-02-24T02:38:18.139Z,101558.64
2019-02-24T02:39:49.486Z,101552.89
2019-02-24T02:41:21.392Z,101551.23
2019-02-24T02:42:53.727Z,101551.60
2019-02-24T02:44:25.591Z,101551.87
2019-02-24T02:45:57.536Z,101548.19
2019-02-24T02:47:28.826Z,101549.31
2019-02-24T02:49:00.673Z,101541.23
2019-02-24T02:50:31.982Z,101548.98
2019-02-24T02:52:03.683Z,101554.28
2019-02-24T02:53:35.602Z,101546.63
2019-02-24T02:55:07.485Z,101546.80
2019-02-24T02:56:38.801Z,101548.35
2019-02-24T02:58:10.594Z,101547.81
2019-02-24T02:59:41.957Z,101548.24
2019-02-24T03:01:13.887Z,101548.36
2019-02-24T03:02:45.739Z,101546.41
2019-02-24T03:04:17.354Z,101544.84
2019-02-24T03:05:49.298Z,101552.08
2019-02-24T03:07:21.512Z,101552.09
2019-02-24T03:08:52.798Z,101556.61
2019-02-24T03:10:24.090Z,101551.88
2019-02-24T03:11:56.033Z,101552.84
2019-02-24T03:13:27.578Z,101552.79
2019-02-24T03:14:59.439Z,101557.70
2019-02-24T03:16:30.756Z,101556.05
2019-02-24T03:18:02.130Z,101557.00
2019-02-24T03:19:33.685Z,101549.95
2019-02-24T03:21:05.582Z,101556.68
2019-02-24T03:22:37.334Z,101553.41
2019-02-24T03:24:09.187Z,101554.75
2019-02-24T03:25:41.074Z,101552.24
2019-02-24T03:27:13.006Z,101554.30
2019-02-24T03:28:45.236Z,101551.59
2019-02-24T03:30:17.153Z,101548.31
2019-02-24T03:31:48.453Z,101545.85
2019-02-24T03:33:19.785Z,101540.30
2019-02-24T03:34:51.393Z,101541.91
2019-02-24T03:36:23.249Z,101546.89
2019-02-24T03:37:55.646Z,101545.56
2019-02-24T03:39:26.999Z,101541.45
2019-02-24T03:40:58.884Z,101545.16
2019-02-24T03:42:30.756Z,101542.03
2019-02-24T03:44:03.094Z,101546.69
2019-02-24T03:45:34.998Z,101539.59
2019-02-24T03:47:06.890Z,101531.35
2019-02-24T03:48:38.782Z,101535.02
2019-02-24T03:50:10.585Z,101533.09
2019-02-24T03:51:42.450Z,101528.90
2019-02-24T03:53:13.801Z,101530.58
2019-02-24T03:54:45.688Z,101530.28
2019-02-24T03:56:17.428Z,101532.02
2019-02-24T03:57:48.738Z,101532.13
2019-02-24T03:59:20.071Z,101528.42
2019-02-24T04:00:51.420Z,101519.27
2019-02-24T04:02:23.821Z,101529.88
2019-02-24T04:03:55.093Z,101526.28
2019-02-24T04:05:27.058Z,101522.84
2019-02-24T04:06:58.903Z,101525.56
2019-02-24T04:08:30.451Z,101532.55
2019-02-24T04:10:01.788Z,101529.09
2019-02-24T04:11:33.697Z,101530.80
2019-02-24T04:13:05.575Z,101531.36
2019-02-24T04:14:37.295Z,101525.68
2019-02-24T04:16:08.595Z,101526.64
2019-02-24T04:17:39.910Z,101517.69
2019-02-24T04:19:11.807Z,101519.77
2019-02-24T04:20:43.291Z,101513.55
2019-02-24T04:22:14.598Z,101516.09
2019-02-24T04:23:46.822Z,101527.34
2019-02-24T04:25:18.733Z,101524.48
2019-02-24T04:26:50.087Z,101533.91
2019-02-24T04:28:24.123Z,101531.67
2019-02-24T04:29:56.372Z,101530.36
2019-02-24T04:31:27.658Z,101526.69
2019-02-24T04:32:59.026Z,101524.69
2019-02-24T04:34:30.357Z,101530.19
2019-02-24T04:36:01.956Z,101525.67
2019-02-24T04:37:33.254Z,101533.44
2019-02-24T04:39:05.039Z,101533.73
2019-02-24T04:40:36.306Z,101533.98
2019-02-24T04:42:07.594Z,101526.18
2019-02-24T04:43:38.997Z,101526.20
2019-02-24T04:45:11.159Z,101523.45
2019-02-24T04:46:43.068Z,101518.25
2019-02-24T04:48:14.372Z,101507.36
2019-02-24T04:49:46.257Z,101508.61
2019-02-24T04:51:18.515Z,101506.96
2019-02-24T04:52:50.378Z,101510.83
2019-02-24T04:54:22.555Z,101513.03
2019-02-24T04:55:53.886Z,101515.52
2019-02-24T04:57:25.240Z,101517.69
2019-02-24T04:58:56.542Z,101522.91
2019-02-24T05:00:28.204Z,101516.80
2019-02-24T05:01:59.490Z,101513.46
2019-02-24T05:03:31.423Z,101511.03
2019-02-24T05:05:02.739Z,101514.50
2019-02-24T05:06:34.320Z,101512.93
2019-02-24T05:08:05.611Z,101515.27
2019-02-24T05:09:37.283Z,101516.39
2019-02-24T05:11:08.615Z,101517.75
2019-02-24T05:12:39.923Z,101518.95
2019-02-24T05:14:11.801Z,101528.23
2019-02-24T05:15:43.333Z,101532.55
2019-02-24T05:17:14.647Z,101534.29
2019-02-24T05:18:45.923Z,101534.73
2019-02-24T05:20:17.839Z,101533.63
2019-02-24T05:21:49.561Z,101531.87
2019-02-24T05:23:20.836Z,101525.47
2019-02-24T05:24:52.139Z,101525.49
2019-02-24T05:26:24.078Z,101533.47
2019-02-24T05:27:55.683Z,101530.13
2019-02-24T05:29:27.580Z,101530.72
2019-02-24T05:30:58.958Z,101532.67
2019-02-24T05:32:30.252Z,101532.30
2019-02-24T05:34:01.821Z,101530.08
2019-02-24T05:35:33.135Z,101534.83
2019-02-24T05:37:04.467Z,101531.55
2019-02-24T05:38:35.755Z,101537.07
2019-02-24T05:40:07.278Z,101539.69
2019-02-24T05:41:38.569Z,101537.81
2019-02-24T05:43:09.878Z,101529.57
2019-02-24T05:44:41.204Z,101536.77
2019-02-24T05:46:12.631Z,101538.94
2019-02-24T05:47:43.989Z,101536.91
2019-02-24T05:49:15.285Z,101533.68
2019-02-24T05:50:46.619Z,101539.20
2019-02-24T05:52:18.139Z,101548.78
2019-02-24T05:53:49.497Z,101547.50
2019-02-24T05:55:20.998Z,101555.11
2019-02-24T05:56:52.340Z,101550.12
2019-02-24T05:58:23.642Z,101550.92
2019-02-24T05:59:55.568Z,101554.45
2019-02-24T06:01:27.244Z,101554.31
2019-02-24T06:02:58.593Z,101548.70
2019-02-24T06:04:29.943Z,101558.34
2019-02-24T06:06:01.249Z,101557.27
2019-02-24T06:07:33.434Z,101549.59
2019-02-24T06:09:04.755Z,101544.04
2019-02-24T06:10:36.538Z,101548.47
2019-02-24T06:12:08.470Z,101558.66
2019-02-24T06:13:40.345Z,101557.86
2019-02-24T06:15:11.639Z,101552.73
2019-02-24T06:16:44.883Z,101560.28
2019-02-24T06:18:16.237Z,101557.77
2019-02-24T06:19:47.549Z,101565.52
2019-02-24T06:21:18.856Z,101564.14
2019-02-24T06:22:51.265Z,101568.09
2019-02-24T06:24:22.563Z,101566.41
2019-02-24T06:25:54.294Z,101566.02
2019-02-24T06:27:25.589Z,101562.31
2019-02-24T06:28:56.917Z,101568.35
2019-02-24T06:30:28.215Z,101569.80
2019-02-24T06:31:59.719Z,101569.84
2019-02-24T06:33:31.013Z,101565.84
2019-02-24T06:35:02.341Z,101565.85
2019-02-24T06:36:33.631Z,101569.76
2019-02-24T06:38:05.301Z,101564.88
2019-02-24T06:39:36.593Z,101570.38
2019-02-24T06:41:08.308Z,101572.55
2019-02-24T06:42:39.629Z,101571.43
2019-02-24T06:44:10.921Z,101579.73
2019-02-24T06:45:42.808Z,101576.05
2019-02-24T06:47:15.090Z,101576.18
2019-02-24T06:48:46.373Z,101565.95
2019-02-24T06:50:18.257Z,101575.91
2019-02-24T06:51:49.549Z,101578.27
2019-02-24T06:53:21.748Z,101575.45
2019-02-24T06:54:53.626Z,101573.41
2019-02-24T06:56:24.940Z,101580.03
2019-02-24T06:57:56.260Z,101577.13
2019-02-24T06:59:28.068Z,101577.19
2019-02-24T07:00:59.962Z,101578.39
2019-02-24T07:02:33.185Z,101575.52
2019-02-24T07:04:05.039Z,101574.59
2019-02-24T07:05:36.615Z,101572.27
2019-02-24T07:07:08.504Z,101578.30
2019-02-24T07:08:40.438Z,101581.41
2019-02-24T07:10:11.741Z,101586.20
2019-02-24T07:11:43.363Z,101579.24
2019-02-24T07:13:15.324Z,101580.91
2019-02-24T07:14:46.598Z,101581.68
2019-02-24T07:16:18.471Z,101580.91
2019-02-24T07:17:50.025Z,101576.75
2019-02-24T07:19:21.936Z,101575.00
2019-02-24T07:20:53.227Z,101581.55
2019-02-24T07:22:25.138Z,101580.16
2019-02-24T07:23:56.836Z,101583.90
2019-02-24T07:25:28.177Z,101582.09
2019-02-24T07:27:00.350Z,101585.50
2019-02-24T07:28:31.641Z,101580.66
2019-02-24T07:30:03.507Z,101582.09
2019-02-24T07:31:35.458Z,101577.67
2019-02-24T07:33:07.805Z,101584.84
2019-02-24T07:34:39.126Z,101586.20
2019-02-24T07:36:11.059Z,101588.39
2019-02-24T07:37:42.972Z,101585.20
2019-02-24T07:39:14.440Z,101586.77
2019-02-24T07:40:46.337Z,101583.39
2019-02-24T07:42:18.457Z,101584.51
2019-02-24T07:43:49.766Z,101583.37
2019-02-24T07:45:21.671Z,101581.63
2019-02-24T07:46:52.958Z,101585.09
2019-02-24T07:48:24.396Z,101577.95
2019-02-24T07:49:55.818Z,101578.11
2019-02-24T07:51:27.749Z,101581.88
2019-02-24T07:52:59.613Z,101573.39
2019-02-24T07:54:31.364Z,101579.47
2019-02-24T07:56:02.684Z,101579.59
2019-02-24T07:57:34.536Z,101575.01
2019-02-24T07:59:05.832Z,101579.98
2019-02-24T08:00:38.433Z,101583.14
2019-02-24T08:02:09.711Z,101581.66
2019-02-24T08:03:41.613Z,101577.06
2019-02-24T08:05:13.509Z,101574.52
2019-02-24T08:06:45.825Z,101574.12
2019-02-24T08:08:17.721Z,101573.47
2019-02-24T08:09:49.586Z,101573.06
2019-02-24T08:11:21.479Z,101574.02
2019-02-24T08:12:53.635Z,101570.60
2019-02-24T08:14:25.522Z,101570.87
2019-02-24T08:15:57.422Z,101567.62
2019-02-24T08:17:29.322Z,101566.50
2019-02-24T08:19:01.461Z,101563.79
2019-02-24T08:20:33.505Z,101570.08
2019-02-24T08:22:05.406Z,101567.88
2019-02-24T08:23:37.283Z,101567.48
2019-02-24T08:25:09.337Z,101569.82
2019-02-24T08:26:41.307Z,101572.85
2019-02-24T08:28:13.203Z,101566.58
2019-02-24T08:29:45.079Z,101570.55
2019-02-24T08:31:17.258Z,101562.42
2019-02-24T08:32:49.194Z,101561.08
2019-02-24T08:34:21.071Z,101555.89
2019-02-24T08:35:52.973Z,101558.48
2019-02-24T08:37:25.035Z,101557.89
2019-02-24T08:38:56.963Z,101561.76
2019-02-24T08:40:28.839Z,101558.09
2019-02-24T08:42:00.767Z,101555.38
2019-02-24T08:43:32.899Z,101561.20
2019-02-24T08:45:04.825Z,101558.54
2019-02-24T08:46:36.757Z,101559.34
2019-02-24T08:48:08.698Z,101556.70
2019-02-24T08:49:40.743Z,101556.95
2019-02-24T08:51:12.660Z,101551.72
2019-02-24T08:52:44.565Z,101553.96
2019-02-24T08:54:16.465Z,101554.69
2019-02-24T08:55:48.477Z,101559.09
2019-02-24T08:57:20.413Z,101548.25
2019-02-24T08:58:52.566Z,101553.57
2019-02-24T09:00:24.426Z,101548.63
2019-02-24T09:01:56.367Z,101542.41
2019-02-24T09:03:27.659Z,101545.19
2019-02-24T09:04:59.901Z,101552.61
2019-02-24T09:06:31.278Z,101545.03
2019-02-24T09:08:03.197Z,101546.43
2019-02-24T09:09:35.130Z,101548.38
2019-02-24T09:11:07.330Z,101544.83
2019-02-24T09:12:39.223Z,101545.54
2019-02-24T09:14:10.997Z,101543.97
2019-02-24T09:15:42.957Z,101545.44
2019-02-24T09:17:14.832Z,101550.47
2019-02-24T09:18:46.727Z,101550.12
2019-02-24T09:20:19.076Z,101550.98
2019-02-24T09:21:50.996Z,101553.27
2019-02-24T09:23:22.900Z,101551.25
2019-02-24T09:24:54.236Z,101551.56
2019-02-24T09:26:26.339Z,101553.02
2019-02-24T09:27:58.223Z,101544.69
2019-02-24T09:29:30.590Z,101554.54
2019-02-24T09:31:02.497Z,101547.16
2019-02-24T09:32:34.440Z,101551.87
2019-02-24T09:34:06.378Z,101548.51
2019-02-24T09:35:38.538Z,101545.09
2019-02-24T09:37:10.420Z,101548.18
2019-02-24T09:38:42.379Z,101545.86
2019-02-24T09:40:14.247Z,101549.13
2019-02-24T09:41:46.403Z,101546.36
2019-02-24T09:43:18.350Z,101549.71
2019-02-24T09:44:51.993Z,101547.52
2019-02-24T09:46:23.884Z,101538.06
2019-02-24T09:47:55.750Z,101534.24
2019-02-24T09:49:27.690Z,101540.27
2019-02-24T09:51:00.092Z,101534.03
2019-02-24T09:52:31.968Z,101532.55
2019-02-24T09:54:03.850Z,101533.31
2019-02-24T09:55:35.778Z,101527.88
2019-02-24T09:57:07.810Z,101524.39
2019-02-24T09:58:39.687Z,101527.70
2019-02-24T10:00:11.903Z,101521.39
2019-02-24T10:01:43.259Z,101523.25
2019-02-24T10:03:15.178Z,101528.99
2019-02-24T10:04:47.072Z,101521.46
2019-02-24T10:06:19.396Z,101519.80
2019-02-24T10:07:51.320Z,101512.25
2019-02-24T10:09:23.220Z,101511.33
2019-02-24T10:10:55.127Z,101509.58
2019-02-24T10:12:27.304Z,101503.66
2019-02-24T10:14:01.126Z,101504.97
2019-02-24T10:15:33.045Z,101505.78
2019-02-24T10:17:04.923Z,101505.47
2019-02-24T10:18:37.265Z,101502.64
2019-02-24T10:20:09.173Z,101495.32
2019-02-24T10:21:41.114Z,101497.60
2019-02-24T10:23:13.014Z,101495.89
2019-02-24T10:24:45.163Z,101493.84
2019-02-24T10:26:17.090Z,101491.02
2019-02-24T10:27:48.999Z,101485.89
2019-02-24T10:29:20.882Z,101483.84
2019-02-24T10:30:52.406Z,101475.76
2019-02-24T10:32:23.739Z,101486.97
2019-02-24T10:33:55.634Z,101478.83
2019-02-24T10:35:27.285Z,101479.23
2019-02-24T10:36:59.624Z,101475.48
2019-02-24T10:38:31.539Z,101467.34
2019-02-24T10:40:03.448Z,101473.87
2019-02-24T10:41:35.307Z,101474.67
2019-02-24T10:43:10.248Z,101467.47
2019-02-24T10:44:41.601Z,101470.94
2019-02-24T10:46:13.950Z,101469.27
2019-02-24T10:47:45.227Z,101463.01
2019-02-24T10:49:16.533Z,101466.13
2019-02-24T10:50:47.831Z,101466.22
2019-02-24T10:52:19.962Z,101455.72
2019-02-24T10:53:51.863Z,101458.23
2019-02-24T10:55:23.731Z,101454.83
2019-02-24T10:56:55.664Z,101449.48
2019-02-24T10:58:34.490Z,101445.58
2019-02-24T11:00:00.757Z,101449.41
2019-02-24T11:01:33.051Z,101444.20
2019-02-24T11:03:04.987Z,101445.77
2019-02-24T11:04:36.872Z,101443.87
2019-02-24T11:06:08.741Z,101441.03
2019-02-24T11:07:40.763Z,101443.71
2019-02-24T11:09:12.667Z,101436.89
2019-02-24T11:10:47.307Z,101444.38
2019-02-24T11:12:19.197Z,101440.80
2019-02-24T11:13:51.305Z,101436.47
2019-02-24T11:15:23.224Z,101434.82
2019-02-24T11:16:55.407Z,101436.38
2019-02-24T11:18:26.736Z,101431.59
2019-02-24T11:19:58.650Z,101438.80
2019-02-24T11:21:30.535Z,101428.97
2019-02-24T11:23:02.934Z,101432.41
2019-02-24T11:24:34.846Z,101430.95
2019-02-24T11:26:06.686Z,101431.20
2019-02-24T11:27:38.621Z,101431.22
2019-02-24T11:29:10.865Z,101427.61
2019-02-24T11:30:42.755Z,101428.77
2019-02-24T11:32:14.634Z,101425.47
2019-02-24T11:33:46.531Z,101423.91
2019-02-24T11:35:18.718Z,101418.72
2019-02-24T11:36:50.648Z,101419.74
2019-02-24T11:38:22.538Z,101421.44
2019-02-24T11:39:54.443Z,101413.94
2019-02-24T11:41:25.949Z,101410.60
2019-02-24T11:42:58.683Z,101417.19
2019-02-24T11:44:30.888Z,101409.20
2019-02-24T11:46:02.800Z,101413.05
2019-02-24T11:47:34.841Z,101404.33
2019-02-24T11:49:06.744Z,101410.55
2019-02-24T11:50:38.644Z,101407.42
2019-02-24T11:52:10.527Z,101409.97
2019-02-24T11:53:42.688Z,101401.52
2019-02-24T11:55:14.611Z,101395.57
2019-02-24T11:56:46.490Z,101398.97
2019-02-24T11:58:18.389Z,101388.27
2019-02-24T11:59:51.513Z,101391.99
2019-02-24T12:01:23.400Z,101390.58
2019-02-24T12:02:55.281Z,101390.11
2019-02-24T12:04:27.140Z,101387.92
2019-02-24T12:05:59.172Z,101389.21
2019-02-24T12:07:31.093Z,101386.52
2019-02-24T12:09:05.400Z,101377.35
2019-02-24T12:10:37.462Z,101384.45
2019-02-24T12:12:09.760Z,101380.77
2019-02-24T12:13:41.634Z,101374.05
2019-02-24T12:15:13.523Z,101378.78
2019-02-24T12:16:45.484Z,101371.66
2019-02-24T12:18:17.535Z,101372.59
2019-02-24T12:19:49.425Z,101371.99
2019-02-24T12:21:21.401Z,101372.72
2019-02-24T12:22:53.312Z,101371.53
2019-02-24T12:24:25.688Z,101375.40
2019-02-24T12:25:57.593Z,101371.43
2019-02-24T12:27:29.486Z,101367.06
2019-02-24T12:29:00.832Z,101364.95
2019-02-24T12:30:32.937Z,101363.88
2019-02-24T12:32:06.149Z,101374.00
2019-02-24T12:33:38.626Z,101366.45
2019-02-24T12:35:10.539Z,101373.27
2019-02-24T12:36:42.442Z,101365.79
2019-02-24T12:38:14.369Z,101370.43
2019-02-24T12:39:46.488Z,101364.63
2019-02-24T12:41:18.381Z,101330.32
2019-02-24T12:42:50.282Z,101361.02
2019-02-24T12:44:22.222Z,101366.58
2019-02-24T12:45:54.447Z,101365.32
2019-02-24T12:47:26.341Z,101360.56
2019-02-24T12:48:58.594Z,101359.53
2019-02-24T12:50:30.521Z,101367.87
2019-02-24T12:52:02.396Z,101358.09
2019-02-24T12:53:34.287Z,101359.95
2019-02-24T12:55:06.696Z,101355.67
2019-02-24T12:56:38.016Z,101362.50
2019-02-24T12:58:09.954Z,101357.12
2019-02-24T12:59:41.874Z,101360.93
2019-02-24T13:01:13.984Z,101353.73
2019-02-24T13:02:45.917Z,101361.84
2019-02-24T13:04:18.014Z,101351.61
2019-02-24T13:05:49.883Z,101350.48
2019-02-24T13:07:21.205Z,101354.86
2019-02-24T13:08:53.209Z,101348.59
2019-02-24T13:10:24.903Z,101345.20
2019-02-24T13:11:56.785Z,101349.46
2019-02-24T13:13:28.092Z,101338.59
2019-02-24T13:14:59.447Z,101340.64
2019-02-24T13:16:31.219Z,101338.66
2019-02-24T13:18:02.535Z,101338.47
2019-02-24T13:19:33.994Z,101340.31
2019-02-24T13:21:05.412Z,101343.44
2019-02-24T13:22:36.729Z,101337.36
2019-02-24T13:24:08.641Z,101336.92
2019-02-24T13:25:40.144Z,101338.86
2019-02-24T13:27:13.182Z,101331.85
2019-02-24T13:28:50.505Z,101328.01
2019-02-24T13:30:17.443Z,101330.47
2019-02-24T13:31:48.923Z,101333.05
2019-02-24T13:33:20.865Z,101334.22
2019-02-24T13:34:52.336Z,101325.80
2019-02-24T13:36:23.636Z,101328.81
2019-02-24T13:37:54.984Z,101333.25
2019-02-24T13:39:26.315Z,101328.73
2019-02-24T13:40:58.534Z,101324.94
2019-02-24T13:42:30.433Z,101326.92
2019-02-24T13:44:02.377Z,101324.13
2019-02-24T13:45:34.267Z,101328.99
2019-02-24T13:47:06.414Z,101331.82
2019-02-24T13:48:38.333Z,101330.41
2019-02-24T13:50:10.419Z,101331.09
2019-02-24T13:51:42.327Z,101332.84
2019-02-24T13:53:14.214Z,101330.52
2019-02-24T13:54:45.512Z,101328.27
2019-02-24T13:56:17.738Z,101332.61
2019-02-24T13:57:49.699Z,101329.25
2019-02-24T13:59:23.729Z,101334.30
2019-02-24T14:00:55.546Z,101332.91
2019-02-24T14:02:27.617Z,101327.19
2019-02-24T14:03:59.536Z,101314.09
2019-02-24T14:05:31.875Z,101322.70
2019-02-24T14:07:03.226Z,101320.35
2019-02-24T14:08:34.605Z,101320.03
2019-02-24T14:10:06.498Z,101318.77
2019-02-24T14:11:37.998Z,101314.92
2019-02-24T14:13:09.948Z,101308.13
2019-02-24T14:14:48.879Z,101307.61
2019-02-24T14:16:15.419Z,101311.06
2019-02-24T14:17:47.792Z,101311.56
2019-02-24T14:19:19.683Z,101310.10
2019-02-24T14:20:51.215Z,101309.80
2019-02-24T14:22:22.546Z,101311.52
2019-02-24T14:23:54.423Z,101313.12
2019-02-24T14:25:26.353Z,101307.14
2019-02-24T14:26:58.594Z,101307.81
2019-02-24T14:28:30.461Z,101311.08
2019-02-24T14:30:02.367Z,101308.47
2019-02-24T14:31:33.749Z,101306.59
2019-02-24T14:33:05.968Z,101306.90
2019-02-24T14:34:38.859Z,101309.95
2019-02-24T14:36:10.664Z,101309.09
2019-02-24T14:37:42.639Z,101309.91
2019-02-24T14:39:14.534Z,101310.39
2019-02-24T14:40:45.881Z,101307.34
2019-02-24T14:42:17.949Z,101304.50
2019-02-24T14:43:49.892Z,101306.76
2019-02-24T14:45:21.217Z,101302.27
2019-02-24T14:46:53.135Z,101314.52
2019-02-24T14:48:25.347Z,101309.38
2019-02-24T14:49:57.357Z,101304.47
2019-02-24T14:51:29.432Z,101305.06
2019-02-24T14:53:00.715Z,101308.37
2019-02-24T14:54:32.011Z,101309.17
2019-02-24T14:56:03.365Z,101310.61
2019-02-24T14:57:35.586Z,101310.03
2019-02-24T14:59:07.511Z,101311.97
2019-02-24T15:00:39.484Z,101309.00
2019-02-24T15:02:11.391Z,101307.11
2019-02-24T15:03:43.620Z,101303.48
2019-02-24T15:05:16.707Z,101303.73
2019-02-24T15:06:49.319Z,101309.85
2019-02-24T15:08:21.207Z,101304.39
2019-02-24T15:09:53.165Z,101305.92
2019-02-24T15:11:25.088Z,101304.66
2019-02-24T15:12:57.163Z,101297.92
2019-02-24T15:14:29.066Z,101300.78
2019-02-24T15:16:00.952Z,101297.52
2019-02-24T15:17:32.897Z,101297.87
2019-02-24T15:19:04.874Z,101300.22
2019-02-24T15:20:36.180Z,101294.94
2019-02-24T15:22:08.202Z,101298.13
2019-02-24T15:23:40.175Z,101296.41
2019-02-24T15:25:12.061Z,101301.66
2019-02-24T15:26:43.946Z,101297.48
2019-02-24T15:28:15.497Z,101295.91
2019-02-24T15:29:47.413Z,101303.08
2019-02-24T15:31:19.290Z,101300.91
2019-02-24T15:32:52.117Z,101303.63
2019-02-24T15:34:24.205Z,101301.64
2019-02-24T15:35:56.145Z,101298.58
2019-02-24T15:37:28.090Z,101300.55
2019-02-24T15:39:02.124Z,101300.60
2019-02-24T15:40:34.844Z,101297.54
2019-02-24T15:42:06.766Z,101300.39
2019-02-24T15:43:38.673Z,101303.32
2019-02-24T15:45:10.550Z,101301.82
2019-02-24T15:46:43.759Z,101303.63
2019-02-24T15:48:15.707Z,101305.14
2019-02-24T15:49:47.669Z,101310.61
2019-02-24T15:51:19.807Z,101309.69
2019-02-24T15:52:51.864Z,101304.69
2019-02-24T15:54:23.747Z,101309.31
2019-02-24T15:55:55.690Z,101306.13
2019-02-24T15:57:27.021Z,101305.46
2019-02-24T15:58:58.715Z,101305.34
2019-02-24T16:00:30.041Z,101307.95
2019-02-24T16:02:02.325Z,101318.91
2019-02-24T16:03:33.638Z,101314.23
2019-02-24T16:05:05.074Z,101316.09
2019-02-24T16:06:37.475Z,101312.75
2019-02-24T16:08:09.551Z,101314.08
2019-02-24T16:09:41.483Z,101314.82
2019-02-24T16:11:12.944Z,101313.54
2019-02-24T16:12:44.886Z,101311.58
2019-02-24T16:14:16.778Z,101310.43
2019-02-24T16:15:48.722Z,101313.69
2019-02-24T16:17:20.913Z,101312.06
2019-02-24T16:18:52.848Z,101314.59
2019-02-24T16:21:27.844Z,101318.21
2019-02-24T16:23:02.408Z,101312.02
2019-02-24T16:24:36.710Z,101313.67
2019-02-24T16:26:10.342Z,101308.20
2019-02-24T16:27:44.133Z,101309.56
2019-02-24T16:29:18.658Z,101315.38
2019-02-24T16:30:52.896Z,101312.56
2019-02-24T16:32:26.524Z,101317.64
2019-02-24T16:34:00.912Z,101316.41
2019-02-24T16:35:35.355Z,101313.92
2019-02-24T16:37:09.605Z,101314.19
2019-02-24T16:38:43.914Z,101316.55
2019-02-24T16:40:23.087Z,101314.39
2019-02-24T16:41:57.712Z,101311.79
2019-02-24T16:43:32.010Z,101308.83
2019-02-24T16:45:09.044Z,101314.02
2019-02-24T16:46:43.333Z,101310.05
2019-02-24T16:48:17.222Z,101312.70
2019-02-24T16:49:51.520Z,101310.67
2019-02-24T16:51:25.246Z,101313.38
2019-02-24T16:52:59.017Z,101314.61
2019-02-24T16:54:34.764Z,101317.38
2019-02-24T16:56:08.484Z,101322.48
2019-02-24T16:57:44.275Z,101331.02
2019-02-24T16:59:18.581Z,101327.28
2019-02-24T17:00:52.758Z,101325.42
2019-02-24T17:02:29.558Z,101327.89
2019-02-24T17:04:06.152Z,101334.07
2019-02-24T17:05:41.856Z,101331.52
2019-02-24T17:07:15.913Z,101336.95
2019-02-24T17:09:01.247Z,101330.30
2019-02-24T17:10:32.664Z,101330.08
2019-02-24T17:12:06.964Z,101331.98
2019-02-24T17:13:41.452Z,101329.95
2019-02-24T17:15:15.188Z,101326.84
2019-02-24T17:16:49.450Z,101330.63
2019-02-24T17:18:23.146Z,101328.19
2019-02-24T17:19:57.049Z,101323.91
2019-02-24T17:21:31.365Z,101324.68
2019-02-24T17:23:07.256Z,101331.70
2019-02-24T17:24:41.972Z,101329.63
2019-02-24T17:26:15.930Z,101324.48
2019-02-24T17:27:51.498Z,101319.25
2019-02-24T17:29:25.228Z,101320.56
2019-02-24T17:30:58.974Z,101321.56